Duncans Mills, CA (95430)

5:53 PM PST on December 20, 2014 (GMT -0800)
Huckleberry Heights, Lower Austin Creek | Change Station
CLOSE
Current Station
Personal Weather Station
Location: Cazadero, CA
Elevation: 299 ft
Nearby Weather Stations

Elev 299 ft 38.49 °N, 123.06 °W | Updated 8 minutes ago

Rain
Rain
55.0 °F
Feels Like 55.0 °F
N
0.0
Wind Variable Wind from WSW
Gusts 1.0 mph

Today
High -- | Low -- °F
--% Chance of Precip.
Yesterday
High -- | Low -- °F
Precip. -- in
7:25 AM 4:54 PM
Waning Crescent, 1% visible
Pressure 30.18 in
Visibility 2.0 miles
Clouds Mostly Cloudy 800 ft
Overcast 1300 ft
Dew Point 54 °F
Humidity 97%
Rainfall 0.61 in
Snow Depth Not available.
UV 0 out of 12
Pollen 4.00 out of 12
Air Quality Not available.
Flu Activity Not available.
SPECI KSTS 210137Z 14005KT 2SM -RA BR BKN008 OVC013 13/12 A3018 RMK AO2 P0004

More Conditions Fewer Conditions

Pressure 30.18 in
Visibility 2.0 miles
Clouds Mostly Cloudy 800 ft
Overcast 1300 ft
Dew Point 54 °F
Humidity 97%
Rainfall 0.61 in
Snow Depth Not available.
UV 0 out of 12
Pollen 4.00 out of 12
Air Quality Not available.
Flu Activity Not available.
SPECI KSTS 210137Z 14005KT 2SM -RA BR BKN008 OVC013 13/12 A3018 RMK AO2 P0004

More Conditions Fewer Conditions

10-Day Weather Forecast

Almanac

Astronomy

Dec. 20, 2014 Rise Set
Actual Time
Civil Twilight
Nautical Twilight
Astronomical Twilight
Moon
Length of Visible Light
Length of Day
Tomorrow will be .
, % of the Moon is Illuminated

Today's Extremes

State Highs State Lows

Community

WunderPhotos

Upload Photos

1,779,339 photos uploaded!

WunderBlogs® & News

Nearby

Air Quality

  Air Quality AQ Index Pollutant
Not available.

Snow Depth

Station Depth Elevation

Earthquake Activity

City Distance Mag. Time & Date
Minimum magnitude displayed is 2.5.

Coastal Water Temperatures

Place Temperature

Nearby Weather Stations